sensor_id;sensor_type;location;lat;lon;timestamp;pressure;altitude;pressure_sealevel;temperature;humidity
26083;BME280;13848;49.018;12.078;2023-02-23T00:01:58;97275.16;;;8.17;75.67
26083;BME280;13848;49.018;12.078;2023-02-23T00:04:24;97272.28;;;8.19;75.32
26083;BME280;13848;49.018;12.078;2023-02-23T00:06:51;97267.44;;;8.27;75.21
26083;BME280;13848;49.018;12.078;2023-02-23T00:09:18;97269.59;;;8.19;75.82
26083;BME280;13848;49.018;12.078;2023-02-23T00:11:44;97268.59;;;8.13;75.66
26083;BME280;13848;49.018;12.078;2023-02-23T00:14:10;97270.28;;;8.08;76.06
26083;BME280;13848;49.018;12.078;2023-02-23T00:16:36;97265.72;;;8.08;75.99
26083;BME280;13848;49.018;12.078;2023-02-23T00:19:02;97269.28;;;8.02;75.74
26083;BME280;13848;49.018;12.078;2023-02-23T00:21:30;97262.00;;;8.09;75.82
26083;BME280;13848;49.018;12.078;2023-02-23T00:23:59;97264.13;;;8.00;75.60
26083;BME280;13848;49.018;12.078;2023-02-23T00:26:27;97261.19;;;8.09;75.74
26083;BME280;13848;49.018;12.078;2023-02-23T00:28:54;97266.13;;;8.05;75.45
26083;BME280;13848;49.018;12.078;2023-02-23T00:31:20;97261.19;;;8.09;75.47
26083;BME280;13848;49.018;12.078;2023-02-23T00:33:47;97269.44;;;8.07;75.79
26083;BME280;13848;49.018;12.078;2023-02-23T00:36:13;97271.34;;;8.00;75.99
26083;BME280;13848;49.018;12.078;2023-02-23T00:38:40;97276.47;;;8.08;75.89
26083;BME280;13848;49.018;12.078;2023-02-23T00:41:09;97272.59;;;7.97;75.78
26083;BME280;13848;49.018;12.078;2023-02-23T00:43:37;97273.06;;;7.88;76.07
26083;BME280;13848;49.018;12.078;2023-02-23T00:46:04;97269.97;;;7.91;75.78
26083;BME280;13848;49.018;12.078;2023-02-23T00:48:30;97268.69;;;7.93;75.88
26083;BME280;13848;49.018;12.078;2023-02-23T00:50:57;97262.31;;;7.88;75.95
26083;BME280;13848;49.018;12.078;2023-02-23T00:53:23;97268.50;;;7.88;76.01
26083;BME280;13848;49.018;12.078;2023-02-23T00:55:49;97267.53;;;7.83;76.68
26083;BME280;13848;49.018;12.078;2023-02-23T00:58:16;97265.66;;;7.83;76.98
26083;BME280;13848;49.018;12.078;2023-02-23T01:00:42;97263.00;;;7.77;76.68
26083;BME280;13848;49.018;12.078;2023-02-23T01:03:08;97263.00;;;7.77;77.00
26083;BME280;13848;49.018;12.078;2023-02-23T01:05:34;97265.06;;;7.74;77.18
26083;BME280;13848;49.018;12.078;2023-02-23T01:08:00;97266.16;;;7.67;76.65
26083;BME280;13848;49.018;12.078;2023-02-23T01:10:26;97265.91;;;7.75;76.51
26083;BME280;13848;49.018;12.078;2023-02-23T01:12:52;97267.56;;;7.69;76.54
26083;BME280;13848;49.018;12.078;2023-02-23T01:15:20;97263.69;;;7.65;76.82
26083;BME280;13848;49.018;12.078;2023-02-23T01:17:46;97258.56;;;7.57;76.94
26083;BME280;13848;49.018;12.078;2023-02-23T01:20:15;97269.72;;;7.54;76.89
26083;BME280;13848;49.018;12.078;2023-02-23T01:22:41;97268.06;;;7.53;76.61
26083;BME280;13848;49.018;12.078;2023-02-23T01:25:07;97269.28;;;7.57;76.65
26083;BME280;13848;49.018;12.078;2023-02-23T01:27:34;97272.53;;;7.72;76.09
26083;BME280;13848;49.018;12.078;2023-02-23T01:30:00;97270.66;;;7.73;76.52
26083;BME280;13848;49.018;12.078;2023-02-23T01:32:27;97278.34;;;7.63;76.43
26083;BME280;13848;49.018;12.078;2023-02-23T01:34:53;97270.50;;;7.61;76.51
26083;BME280;13848;49.018;12.078;2023-02-23T01:37:19;97274.44;;;7.65;76.31
26083;BME280;13848;49.018;12.078;2023-02-23T01:39:45;97270.50;;;7.61;76.78
26083;BME280;13848;49.018;12.078;2023-02-23T01:42:12;97266.00;;;7.55;77.19
26083;BME280;13848;49.018;12.078;2023-02-23T01:47:52;97272.22;;;7.49;77.17
26083;BME280;13848;49.018;12.078;2023-02-23T01:50:19;97264.16;;;7.49;77.20
26083;BME280;13848;49.018;12.078;2023-02-23T01:52:46;97267.06;;;7.41;77.67
26083;BME280;13848;49.018;12.078;2023-02-23T01:55:15;97262.94;;;7.45;77.15
26083;BME280;13848;49.018;12.078;2023-02-23T01:57:41;97269.75;;;7.41;77.19
26083;BME280;13848;49.018;12.078;2023-02-23T02:00:08;97261.09;;;7.39;77.22
26083;BME280;13848;49.018;12.078;2023-02-23T02:02:34;97259.69;;;7.36;77.45
26083;BME280;13848;49.018;12.078;2023-02-23T02:05:03;97259.84;;;7.48;77.10
26083;BME280;13848;49.018;12.078;2023-02-23T02:07:29;97260.81;;;7.54;76.86
26083;BME280;13848;49.018;12.078;2023-02-23T02:09:57;97262.38;;;7.36;76.61
26083;BME280;13848;49.018;12.078;2023-02-23T02:12:23;97268.56;;;7.37;77.52
26083;BME280;13848;49.018;12.078;2023-02-23T02:14:49;97258.84;;;7.36;77.16
26083;BME280;13848;49.018;12.078;2023-02-23T02:17:26;97264.84;;;7.38;77.36
26083;BME280;13848;49.018;12.078;2023-02-23T02:20:21;97265.44;;;7.40;76.72
26083;BME280;13848;49.018;12.078;2023-02-23T02:23:28;97257.81;;;7.37;77.43
26083;BME280;13848;49.018;12.078;2023-02-23T02:26:03;97258.03;;;7.29;77.59
26083;BME280;13848;49.018;12.078;2023-02-23T02:28:50;97254.56;;;7.22;77.70
26083;BME280;13848;49.018;12.078;2023-02-23T02:31:42;97256.25;;;7.09;78.01
26083;BME280;13848;49.018;12.078;2023-02-23T02:34:35;97254.78;;;7.07;78.50
26083;BME280;13848;49.018;12.078;2023-02-23T02:37:21;97256.47;;;7.01;78.91
26083;BME280;13848;49.018;12.078;2023-02-23T02:39:55;97254.63;;;6.95;78.42
26083;BME280;13848;49.018;12.078;2023-02-23T02:42:28;97251.28;;;7.06;78.05
26083;BME280;13848;49.018;12.078;2023-02-23T02:45:01;97255.00;;;7.05;78.02
26083;BME280;13848;49.018;12.078;2023-02-23T02:47:34;97255.63;;;7.01;78.24
26083;BME280;13848;49.018;12.078;2023-02-23T02:50:01;97253.41;;;6.98;77.73
26083;BME280;13848;49.018;12.078;2023-02-23T02:52:32;97258.13;;;6.96;78.18
26083;BME280;13848;49.018;12.078;2023-02-23T02:55:03;97265.72;;;7.12;77.62
26083;BME280;13848;49.018;12.078;2023-02-23T02:57:32;97262.84;;;7.13;78.46
26083;BME280;13848;49.018;12.078;2023-02-23T02:59:58;97263.25;;;7.10;78.31
26083;BME280;13848;49.018;12.078;2023-02-23T03:02:23;97265.72;;;7.05;78.13
26083;BME280;13848;49.018;12.078;2023-02-23T03:04:49;97265.94;;;7.04;78.27
26083;BME280;13848;49.018;12.078;2023-02-23T03:07:20;97265.50;;;7.07;78.46
26083;BME280;13848;49.018;12.078;2023-02-23T03:09:55;97268.63;;;7.04;78.17
26083;BME280;13848;49.018;12.078;2023-02-23T03:12:28;97270.72;;;7.02;78.05
26083;BME280;13848;49.018;12.078;2023-02-23T03:15:03;97266.78;;;7.04;78.43
26083;BME280;13848;49.018;12.078;2023-02-23T03:17:37;97269.03;;;7.07;78.35
26083;BME280;13848;49.018;12.078;2023-02-23T03:20:16;97268.63;;;7.04;78.71
26083;BME280;13848;49.018;12.078;2023-02-23T03:22:51;97274.38;;;7.07;77.98
26083;BME280;13848;49.018;12.078;2023-02-23T03:25:27;97265.97;;;6.97;78.51
26083;BME280;13848;49.018;12.078;2023-02-23T03:28:00;97268.66;;;6.97;78.02
26083;BME280;13848;49.018;12.078;2023-02-23T03:30:36;97260.78;;;6.96;78.82
26083;BME280;13848;49.018;12.078;2023-02-23T03:33:10;97269.50;;;6.91;78.23
26083;BME280;13848;49.018;12.078;2023-02-23T03:35:46;97268.66;;;6.97;78.47
26083;BME280;13848;49.018;12.078;2023-02-23T03:38:15;97272.38;;;6.96;78.30
26083;BME280;13848;49.018;12.078;2023-02-23T03:40:45;97267.66;;;6.85;78.29
26083;BME280;13848;49.018;12.078;2023-02-23T03:43:17;97274.84;;;6.91;78.54
26083;BME280;13848;49.018;12.078;2023-02-23T03:45:46;97265.78;;;6.85;78.58
26083;BME280;13848;49.018;12.078;2023-02-23T03:48:16;97278.38;;;6.85;78.63
26083;BME280;13848;49.018;12.078;2023-02-23T03:50:47;97282.25;;;6.89;78.89
26083;BME280;13848;49.018;12.078;2023-02-23T03:53:16;97271.97;;;6.86;78.45
26083;BME280;13848;49.018;12.078;2023-02-23T03:55:49;97281.00;;;6.98;78.46
26083;BME280;13848;49.018;12.078;2023-02-23T03:58:24;97278.13;;;6.93;78.30
26083;BME280;13848;49.018;12.078;2023-02-23T04:00:54;97277.13;;;6.81;78.99
26083;BME280;13848;49.018;12.078;2023-02-23T04:03:25;97276.50;;;6.79;78.80
26083;BME280;13848;49.018;12.078;2023-02-23T04:05:53;97278.56;;;6.77;78.57
26083;BME280;13848;49.018;12.078;2023-02-23T04:08:21;97275.69;;;6.85;79.05
26083;BME280;13848;49.018;12.078;2023-02-23T04:10:57;97282.69;;;6.86;78.94
26083;BME280;13848;49.018;12.078;2023-02-23T04:13:26;97267.81;;;6.83;79.36
26083;BME280;13848;49.018;12.078;2023-02-23T04:15:57;97274.44;;;6.74;79.05
26083;BME280;13848;49.018;12.078;2023-02-23T04:18:25;97281.88;;;6.85;78.38
26083;BME280;13848;49.018;12.078;2023-02-23T04:20:52;97281.88;;;6.79;78.44
26083;BME280;13848;49.018;12.078;2023-02-23T04:23:20;97287.22;;;6.79;79.33
26083;BME280;13848;49.018;12.078;2023-02-23T04:25:46;97286.00;;;6.75;78.87
26083;BME280;13848;49.018;12.078;2023-02-23T04:28:13;97287.03;;;6.74;79.54
26083;BME280;13848;49.018;12.078;2023-02-23T04:30:39;97287.03;;;6.74;79.18
26083;BME280;13848;49.018;12.078;2023-02-23T04:33:05;97286.00;;;6.75;79.01
26083;BME280;13848;49.018;12.078;2023-02-23T04:35:31;97286.38;;;6.72;79.05
26083;BME280;13848;49.018;12.078;2023-02-23T04:37:57;97290.94;;;6.64;79.15
26083;BME280;13848;49.018;12.078;2023-02-23T04:40:23;97284.75;;;6.71;78.66
26083;BME280;13848;49.018;12.078;2023-02-23T04:42:49;97287.44;;;6.71;78.85
26083;BME280;13848;49.018;12.078;2023-02-23T04:45:17;97288.47;;;6.70;79.30
26083;BME280;13848;49.018;12.078;2023-02-23T04:47:43;97293.84;;;6.56;79.34
26083;BME280;13848;49.018;12.078;2023-02-23T04:50:10;97289.69;;;6.47;80.14
26083;BME280;13848;49.018;12.078;2023-02-23T04:52:36;97288.66;;;6.48;80.07
26083;BME280;13848;49.018;12.078;2023-02-23T04:55:02;97294.66;;;6.57;78.87
26083;BME280;13848;49.018;12.078;2023-02-23T04:57:29;97302.06;;;6.61;79.01
26083;BME280;13848;49.018;12.078;2023-02-23T04:59:55;97295.25;;;6.59;79.19
26083;BME280;13848;49.018;12.078;2023-02-23T05:02:22;97298.75;;;6.46;79.56
26083;BME280;13848;49.018;12.078;2023-02-23T05:04:48;97294.22;;;6.53;79.57
26083;BME280;13848;49.018;12.078;2023-02-23T05:07:14;97305.38;;;6.50;79.36
26083;BME280;13848;49.018;12.078;2023-02-23T05:09:40;97297.13;;;6.45;79.59
26083;BME280;13848;49.018;12.078;2023-02-23T05:12:06;97299.59;;;6.47;79.79
26083;BME280;13848;49.018;12.078;2023-02-23T05:14:31;97302.47;;;6.45;80.35
26083;BME280;13848;49.018;12.078;2023-02-23T05:16:58;97296.69;;;6.48;80.25
26083;BME280;13848;49.018;12.078;2023-02-23T05:19:25;97295.03;;;6.47;80.06
26083;BME280;13848;49.018;12.078;2023-02-23T05:21:51;97296.91;;;6.47;79.63
26083;BME280;13848;49.018;12.078;2023-02-23T05:24:17;97295.03;;;6.47;80.29
26083;BME280;13848;49.018;12.078;2023-02-23T05:26:44;97296.28;;;6.51;79.96
26083;BME280;13848;49.018;12.078;2023-02-23T05:29:10;97294.22;;;6.53;79.84
26083;BME280;13848;49.018;12.078;2023-02-23T05:31:36;97293.63;;;6.51;79.45
26083;BME280;13848;49.018;12.078;2023-02-23T05:34:02;97296.69;;;6.48;80.24
26083;BME280;13848;49.018;12.078;2023-02-23T05:36:29;97301.00;;;6.49;79.67
26083;BME280;13848;49.018;12.078;2023-02-23T05:38:55;97293.63;;;6.51;80.39
26083;BME280;13848;49.018;12.078;2023-02-23T05:41:22;97301.66;;;6.51;79.96
26083;BME280;13848;49.018;12.078;2023-02-23T05:43:49;97305.16;;;6.52;79.78
26083;BME280;13848;49.018;12.078;2023-02-23T05:46:18;97300.00;;;6.50;80.22
26083;BME280;13848;49.018;12.078;2023-02-23T05:48:44;97301.22;;;6.48;79.76
26083;BME280;13848;49.018;12.078;2023-02-23T05:51:12;97304.13;;;6.46;80.40
26083;BME280;13848;49.018;12.078;2023-02-23T05:53:40;97305.38;;;6.50;80.50
26083;BME280;13848;49.018;12.078;2023-02-23T05:56:09;97301.22;;;6.48;79.59
26083;BME280;13848;49.018;12.078;2023-02-23T05:58:36;97300.41;;;6.40;80.20
26083;BME280;13848;49.018;12.078;2023-02-23T06:01:02;97307.00;;;6.38;80.11
26083;BME280;13848;49.018;12.078;2023-02-23T06:03:28;97303.28;;;6.39;80.12
26083;BME280;13848;49.018;12.078;2023-02-23T06:05:56;97316.47;;;6.40;80.54
26083;BME280;13848;49.018;12.078;2023-02-23T06:08:23;97314.19;;;6.37;80.56
26083;BME280;13848;49.018;12.078;2023-02-23T06:10:50;97320.19;;;6.39;80.13
26083;BME280;13848;49.018;12.078;2023-02-23T06:13:17;97319.75;;;6.43;80.06
26083;BME280;13848;49.018;12.078;2023-02-23T06:15:43;97325.94;;;6.43;80.71
26083;BME280;13848;49.018;12.078;2023-02-23T06:18:09;97335.00;;;6.42;80.29
26083;BME280;13848;49.018;12.078;2023-02-23T06:20:36;97330.06;;;6.46;80.48
26083;BME280;13848;49.018;12.078;2023-02-23T06:23:03;97341.59;;;6.46;80.03
26083;BME280;13848;49.018;12.078;2023-02-23T06:25:29;97331.72;;;6.47;80.31
26083;BME280;13848;49.018;12.078;2023-02-23T06:27:56;97332.53;;;6.47;80.29
26083;BME280;13848;49.018;12.078;2023-02-23T06:30:22;97333.78;;;6.51;80.09
26083;BME280;13848;49.018;12.078;2023-02-23T06:32:48;97335.03;;;6.55;79.91
26083;BME280;13848;49.018;12.078;2023-02-23T06:35:14;97336.69;;;6.56;80.53
26083;BME280;13848;49.018;12.078;2023-02-23T06:37:40;97340.78;;;6.52;80.16
26083;BME280;13848;49.018;12.078;2023-02-23T06:40:08;97338.31;;;6.51;80.52
26083;BME280;13848;49.018;12.078;2023-02-23T06:42:34;97338.31;;;6.57;80.82
26083;BME280;13848;49.018;12.078;2023-02-23T06:45:01;97334.41;;;6.53;81.28
26083;BME280;13848;49.018;12.078;2023-02-23T06:47:27;97331.72;;;6.53;81.07
26083;BME280;13848;49.018;12.078;2023-02-23T06:49:54;97339.97;;;6.58;81.40
26083;BME280;13848;49.018;12.078;2023-02-23T06:52:20;97346.97;;;6.66;81.06
26083;BME280;13848;49.018;12.078;2023-02-23T06:54:46;97348.00;;;6.72;80.66
26083;BME280;13848;49.018;12.078;2023-02-23T06:57:12;97352.34;;;6.73;79.87
26083;BME280;13848;49.018;12.078;2023-02-23T06:59:38;97355.66;;;6.75;80.92
26083;BME280;13848;49.018;12.078;2023-02-23T07:02:06;97354.00;;;6.87;80.47
26083;BME280;13848;49.018;12.078;2023-02-23T07:04:32;97357.06;;;6.84;80.62
26083;BME280;13848;49.018;12.078;2023-02-23T07:06:58;97352.34;;;6.79;80.42
26083;BME280;13848;49.018;12.078;2023-02-23T07:09:24;97362.03;;;6.87;80.37
26083;BME280;13848;49.018;12.078;2023-02-23T07:11:50;97361.41;;;6.98;80.30
26083;BME280;13848;49.018;12.078;2023-02-23T07:14:16;97363.88;;;6.93;80.31
26083;BME280;13848;49.018;12.078;2023-02-23T07:16:42;97369.69;;;6.90;80.44
26083;BME280;13848;49.018;12.078;2023-02-23T07:19:09;97365.75;;;6.99;80.79
26083;BME280;13848;49.018;12.078;2023-02-23T07:21:35;97365.94;;;7.04;80.22
26083;BME280;13848;49.018;12.078;2023-02-23T07:24:02;97368.41;;;7.12;79.96
26083;BME280;13848;49.018;12.078;2023-02-23T07:26:28;97364.28;;;7.10;79.93
26083;BME280;13848;49.018;12.078;2023-02-23T07:28:53;97364.28;;;7.16;79.94
26083;BME280;13848;49.018;12.078;2023-02-23T07:31:19;97363.44;;;7.23;80.30
26083;BME280;13848;49.018;12.078;2023-02-23T07:33:45;97373.53;;;7.34;79.74
26083;BME280;13848;49.018;12.078;2023-02-23T07:36:12;97371.47;;;7.36;79.68
26083;BME280;13848;49.018;12.078;2023-02-23T07:38:38;97372.31;;;7.43;79.73
26083;BME280;13848;49.018;12.078;2023-02-23T07:41:04;97367.94;;;7.42;79.44
26083;BME280;13848;49.018;12.078;2023-02-23T07:43:30;97375.34;;;7.53;79.38
26083;BME280;13848;49.018;12.078;2023-02-23T07:45:58;97374.34;;;7.54;78.71
26083;BME280;13848;49.018;12.078;2023-02-23T07:48:24;97371.84;;;7.59;79.14
26083;BME280;13848;49.018;12.078;2023-02-23T07:50:50;97372.03;;;7.64;79.26
26083;BME280;13848;49.018;12.078;2023-02-23T07:53:17;97373.69;;;7.72;79.01
26083;BME280;13848;49.018;12.078;2023-02-23T07:55:43;97373.03;;;7.77;78.84
26083;BME280;13848;49.018;12.078;2023-02-23T07:58:09;97380.63;;;7.86;78.58
26083;BME280;13848;49.018;12.078;2023-02-23T08:00:35;97376.88;;;7.94;78.85
26083;BME280;13848;49.018;12.078;2023-02-23T08:03:01;97377.69;;;8.01;79.18
26083;BME280;13848;49.018;12.078;2023-02-23T08:05:27;97369.38;;;8.09;78.31
26083;BME280;13848;49.018;12.078;2023-02-23T08:07:54;97367.50;;;8.16;78.57
26083;BME280;13848;49.018;12.078;2023-02-23T08:10:21;97369.75;;;8.19;78.70
26083;BME280;13848;49.018;12.078;2023-02-23T08:12:47;97368.63;;;8.34;78.40
26083;BME280;13848;49.018;12.078;2023-02-23T08:15:13;97370.84;;;8.50;77.81
26083;BME280;13848;49.018;12.078;2023-02-23T08:17:39;97382.81;;;8.54;77.37
26083;BME280;13848;49.018;12.078;2023-02-23T08:20:07;97385.69;;;8.59;77.21
26083;BME280;13848;49.018;12.078;2023-02-23T08:22:33;97385.94;;;8.51;77.45
26083;BME280;13848;49.018;12.078;2023-02-23T08:24:59;97389.44;;;8.58;77.41
26083;BME280;13848;49.018;12.078;2023-02-23T08:27:26;97382.75;;;8.67;77.15
26083;BME280;13848;49.018;12.078;2023-02-23T08:29:54;97380.03;;;8.67;77.36
26083;BME280;13848;49.018;12.078;2023-02-23T08:32:20;97380.16;;;8.79;77.24
26083;BME280;13848;49.018;12.078;2023-02-23T08:34:46;97377.88;;;8.83;76.85
26083;BME280;13848;49.018;12.078;2023-02-23T08:37:12;97374.66;;;8.99;77.08
26083;BME280;13848;49.018;12.078;2023-02-23T08:39:38;97378.28;;;9.11;76.03
26083;BME280;13848;49.018;12.078;2023-02-23T08:42:04;97379.16;;;9.05;75.75
26083;BME280;13848;49.018;12.078;2023-02-23T08:44:32;97384.75;;;9.03;75.80
26083;BME280;13848;49.018;12.078;2023-02-23T08:46:58;97386.25;;;8.99;75.70
26083;BME280;13848;49.018;12.078;2023-02-23T08:49:24;97387.81;;;9.07;76.09
26083;BME280;13848;49.018;12.078;2023-02-23T08:51:50;97389.63;;;9.13;75.62
26083;BME280;13848;49.018;12.078;2023-02-23T08:54:16;97377.81;;;9.14;75.86
26083;BME280;13848;49.018;12.078;2023-02-23T08:56:43;97392.25;;;9.20;75.96
26083;BME280;13848;49.018;12.078;2023-02-23T08:59:11;97386.47;;;9.23;75.36
26083;BME280;13848;49.018;12.078;2023-02-23T09:01:38;97394.47;;;9.29;75.25
26083;BME280;13848;49.018;12.078;2023-02-23T09:04:05;97390.31;;;9.33;75.20
26083;BME280;13848;49.018;12.078;2023-02-23T09:06:31;97393.84;;;9.27;74.91
26083;BME280;13848;49.018;12.078;2023-02-23T09:08:57;97388.91;;;9.24;75.55
26083;BME280;13848;49.018;12.078;2023-02-23T09:11:23;97391.53;;;9.31;75.33
26083;BME280;13848;49.018;12.078;2023-02-23T09:13:49;97394.47;;;9.29;75.54
26083;BME280;13848;49.018;12.078;2023-02-23T09:16:15;97389.69;;;9.31;75.51
26083;BME280;13848;49.018;12.078;2023-02-23T09:18:43;97390.09;;;9.53;75.23
26083;BME280;13848;49.018;12.078;2023-02-23T09:21:14;97393.84;;;9.27;75.49
26083;BME280;13848;49.018;12.078;2023-02-23T09:23:40;97390.41;;;9.45;75.80
26083;BME280;13848;49.018;12.078;2023-02-23T09:26:07;97400.63;;;9.55;75.37
26083;BME280;13848;49.018;12.078;2023-02-23T09:28:33;97384.94;;;9.52;74.56
26083;BME280;13848;49.018;12.078;2023-02-23T09:31:04;97395.72;;;9.52;74.55
26083;BME280;13848;49.018;12.078;2023-02-23T09:33:30;97392.19;;;9.26;75.91
26083;BME280;13848;49.018;12.078;2023-02-23T09:35:58;97388.22;;;9.54;75.31
26083;BME280;13848;49.018;12.078;2023-02-23T09:38:24;97391.38;;;9.69;75.25
26083;BME280;13848;49.018;12.078;2023-02-23T09:40:51;97388.84;;;9.93;74.64
26083;BME280;13848;49.018;12.078;2023-02-23T09:43:21;97385.56;;;10.09;75.05
26083;BME280;13848;49.018;12.078;2023-02-23T09:46:00;97394.28;;;10.23;73.98
26083;BME280;13848;49.018;12.078;2023-02-23T09:48:32;97396.19;;;10.04;74.05
26083;BME280;13848;49.018;12.078;2023-02-23T09:51:01;97392.84;;;10.20;74.52
26083;BME280;13848;49.018;12.078;2023-02-23T09:53:36;97393.66;;;10.27;74.24
26083;BME280;13848;49.018;12.078;2023-02-23T09:56:06;97402.91;;;10.13;73.48
26083;BME280;13848;49.018;12.078;2023-02-23T09:58:35;97401.78;;;10.02;73.55
26083;BME280;13848;49.018;12.078;2023-02-23T10:01:16;97404.53;;;9.96;73.49
26083;BME280;13848;49.018;12.078;2023-02-23T10:03:50;97410.09;;;10.01;73.72
26083;BME280;13848;49.018;12.078;2023-02-23T10:06:19;97399.78;;;9.98;73.58
26083;BME280;13848;49.018;12.078;2023-02-23T10:08:51;97401.09;;;10.07;73.96
26083;BME280;13848;49.018;12.078;2023-02-23T10:11:26;97407.72;;;9.93;73.98
26083;BME280;13848;49.018;12.078;2023-02-23T10:14:06;97402.97;;;10.06;73.90
26083;BME280;13848;49.018;12.078;2023-02-23T10:16:44;97402.06;;;10.12;73.39
26083;BME280;13848;49.018;12.078;2023-02-23T10:19:18;97404.94;;;9.99;73.91
26083;BME280;13848;49.018;12.078;2023-02-23T10:21:53;97401.78;;;10.02;73.45
26083;BME280;13848;49.018;12.078;2023-02-23T10:24:23;97399.16;;;9.96;73.55
26083;BME280;13848;49.018;12.078;2023-02-23T10:26:53;97399.53;;;9.99;73.41
26083;BME280;13848;49.018;12.078;2023-02-23T10:29:25;97398.06;;;10.03;74.05
26083;BME280;13848;49.018;12.078;2023-02-23T10:31:55;97404.63;;;10.07;73.73
26083;BME280;13848;49.018;12.078;2023-02-23T10:34:23;97401.72;;;10.09;73.64
26083;BME280;13848;49.018;12.078;2023-02-23T10:36:58;97404.53;;;10.14;73.32
26083;BME280;13848;49.018;12.078;2023-02-23T10:39:24;97405.50;;;10.20;73.12
26083;BME280;13848;49.018;12.078;2023-02-23T10:41:51;97395.56;;;10.02;73.40
26083;BME280;13848;49.018;12.078;2023-02-23T10:44:20;97405.16;;;9.98;73.78
26083;BME280;13848;49.018;12.078;2023-02-23T10:46:50;97406.25;;;10.08;74.14
26083;BME280;13848;49.018;12.078;2023-02-23T10:49:20;97403.81;;;10.07;73.57
26083;BME280;13848;49.018;12.078;2023-02-23T10:51:47;97394.97;;;10.00;73.59
26083;BME280;13848;49.018;12.078;2023-02-23T10:54:38;97405.53;;;10.01;73.61
26083;BME280;13848;49.018;12.078;2023-02-23T10:57:06;97399.22;;;10.07;73.93
26083;BME280;13848;49.018;12.078;2023-02-23T10:59:32;97393.84;;;10.07;74.17
26083;BME280;13848;49.018;12.078;2023-02-23T11:02:14;97391.06;;;10.14;74.00
26083;BME280;13848;49.018;12.078;2023-02-23T11:04:49;97383.69;;;10.28;73.89
26083;BME280;13848;49.018;12.078;2023-02-23T11:07:19;97384.19;;;10.36;73.91
26083;BME280;13848;49.018;12.078;2023-02-23T11:09:47;97384.19;;;10.36;73.31
26083;BME280;13848;49.018;12.078;2023-02-23T11:12:18;97378.94;;;10.42;73.41
26083;BME280;13848;49.018;12.078;2023-02-23T11:14:44;97382.16;;;10.50;73.26
26083;BME280;13848;49.018;12.078;2023-02-23T11:17:24;97375.97;;;10.61;72.56
26083;BME280;13848;49.018;12.078;2023-02-23T11:19:56;97374.94;;;10.32;73.53
26083;BME280;13848;49.018;12.078;2023-02-23T11:22:23;97368.44;;;10.52;73.25
26083;BME280;13848;49.018;12.078;2023-02-23T11:24:50;97360.00;;;10.60;72.42
26083;BME280;13848;49.018;12.078;2023-02-23T11:27:19;97366.47;;;10.59;72.52
26083;BME280;13848;49.018;12.078;2023-02-23T11:29:46;97366.16;;;10.67;72.32
26083;BME280;13848;49.018;12.078;2023-02-23T11:32:16;97358.66;;;10.69;72.79
26083;BME280;13848;49.018;12.078;2023-02-23T11:34:43;97363.22;;;10.69;72.46
26083;BME280;13848;49.018;12.078;2023-02-23T11:37:18;97358.16;;;10.72;72.18
26083;BME280;13848;49.018;12.078;2023-02-23T11:39:51;97360.53;;;10.38;72.80
26083;BME280;13848;49.018;12.078;2023-02-23T11:42:19;97361.75;;;10.24;73.79
26083;BME280;13848;49.018;12.078;2023-02-23T11:44:50;97355.50;;;10.42;72.99
26083;BME280;13848;49.018;12.078;2023-02-23T11:47:18;97356.94;;;10.45;73.02
26083;BME280;13848;49.018;12.078;2023-02-23T11:49:46;97354.38;;;10.50;73.14
26083;BME280;13848;49.018;12.078;2023-02-23T11:52:14;97339.84;;;10.51;72.78
26083;BME280;13848;49.018;12.078;2023-02-23T11:54:48;97342.06;;;10.54;73.21
26083;BME280;13848;49.018;12.078;2023-02-23T11:57:21;97344.41;;;10.50;73.11
26083;BME280;13848;49.018;12.078;2023-02-23T11:59:48;97342.75;;;10.49;72.92
26083;BME280;13848;49.018;12.078;2023-02-23T12:02:20;97341.81;;;10.44;73.55
26083;BME280;13848;49.018;12.078;2023-02-23T12:04:48;97341.47;;;10.52;73.02
26083;BME280;13848;49.018;12.078;2023-02-23T12:07:30;97343.84;;;10.60;72.74
26083;BME280;13848;49.018;12.078;2023-02-23T12:10:02;97342.91;;;10.66;72.51
26083;BME280;13848;49.018;12.078;2023-02-23T12:12:41;97338.44;;;10.60;73.42
26083;BME280;13848;49.018;12.078;2023-02-23T12:15:16;97337.78;;;10.76;72.70
26083;BME280;13848;49.018;12.078;2023-02-23T12:17:47;97339.69;;;10.87;72.99
26083;BME280;13848;49.018;12.078;2023-02-23T12:20:17;97337.81;;;11.00;72.81
26083;BME280;13848;49.018;12.078;2023-02-23T12:22:47;97336.56;;;11.02;72.20
26083;BME280;13848;49.018;12.078;2023-02-23T12:25:21;97340.06;;;10.91;72.60
26083;BME280;13848;49.018;12.078;2023-02-23T12:27:56;97334.06;;;11.01;72.11
26083;BME280;13848;49.018;12.078;2023-02-23T12:30:30;97338.19;;;11.03;71.94
26083;BME280;13848;49.018;12.078;2023-02-23T12:33:03;97334.81;;;11.08;72.40
26083;BME280;13848;49.018;12.078;2023-02-23T12:35:39;97327.66;;;11.13;71.90
26083;BME280;13848;49.018;12.078;2023-02-23T12:38:14;97325.53;;;11.15;72.21
26083;BME280;13848;49.018;12.078;2023-02-23T12:40:41;97327.53;;;11.20;72.31
26083;BME280;13848;49.018;12.078;2023-02-23T12:43:14;97324.84;;;11.20;72.01
26083;BME280;13848;49.018;12.078;2023-02-23T12:45:45;97322.59;;;11.17;71.66
26083;BME280;13848;49.018;12.078;2023-02-23T12:48:18;97314.75;;;11.15;71.81
26083;BME280;13848;49.018;12.078;2023-02-23T12:50:55;97322.59;;;11.29;71.74
26083;BME280;13848;49.018;12.078;2023-02-23T12:53:25;97315.31;;;11.29;71.30
26083;BME280;13848;49.018;12.078;2023-02-23T12:56:09;97313.69;;;11.28;71.78
26083;BME280;13848;49.018;12.078;2023-02-23T12:58:47;97309.34;;;11.27;71.41
26083;BME280;13848;49.018;12.078;2023-02-23T13:01:16;97315.69;;;11.33;71.73
26083;BME280;13848;49.018;12.078;2023-02-23T13:04:03;97307.22;;;11.41;71.36
26083;BME280;13848;49.018;12.078;2023-02-23T13:06:38;97306.38;;;11.40;71.20
26083;BME280;13848;49.018;12.078;2023-02-23T13:09:23;97301.00;;;11.40;71.31
26083;BME280;13848;49.018;12.078;2023-02-23T13:12:05;97305.56;;;11.40;71.28